Time;durP1;ratioP1;P1;durP2;ratioP2;P2;SDS_P1;SDS_P2;PMS_P1;PMS_P2;Temp;Humidity;BMP_temperature;BMP_pressure;BME280_temperature;BME280_humidity;BME280_pressure;Samples;Min_cycle;Max_cycle;Signal;HPM_P1;HPM_P2
2021/12/20 00:01:14;;;;;;;14.10;3.88;;;3.50;99.90;;;;;;5011688;28;20371;-75
2021/12/20 00:03:40;;;;;;;18.48;3.10;;;3.50;99.90;;;;;;5031357;28;20049;-75
2021/12/20 00:06:06;;;;;;;12.77;3.13;;;3.40;99.90;;;;;;4996302;28;20029;-75
2021/12/20 00:08:36;;;;;;;7.82;2.83;;;3.40;99.90;;;;;;5020999;28;20487;-75
2021/12/20 00:11:02;;;;;;;14.68;3.13;;;3.40;99.90;;;;;;5030470;28;20021;-75
2021/12/20 00:13:28;;;;;;;10.93;2.47;;;3.40;99.90;;;;;;5026780;28;20037;-75
2021/12/20 00:15:55;;;;;;;12.98;2.60;;;3.40;99.90;;;;;;5031613;28;20403;-75
2021/12/20 00:18:21;;;;;;;11.43;3.10;;;3.40;99.90;;;;;;5025414;28;20392;-74
2021/12/20 00:20:47;;;;;;;11.00;2.60;;;3.40;99.90;;;;;;5031964;28;20025;-74
2021/12/20 00:23:12;;;;;;;12.80;3.20;;;3.40;99.90;;;;;;5022511;28;20062;-75
2021/12/20 00:25:38;;;;;;;11.32;2.85;;;3.40;99.90;;;;;;5014241;28;20044;-75
2021/12/20 00:28:04;;;;;;;11.43;3.00;;;3.30;99.90;;;;;;4996922;28;20029;-75
2021/12/20 00:30:30;;;;;;;13.02;3.00;;;3.30;99.90;;;;;;5025875;28;20032;-73
2021/12/20 00:32:56;;;;;;;11.93;3.22;;;3.30;99.90;;;;;;5013811;28;20033;-75
2021/12/20 00:35:25;;;;;;;14.98;2.78;;;3.30;99.90;;;;;;5009452;28;20106;-77
2021/12/20 00:40:37;;;;;;;10.52;2.35;;;3.20;99.90;;;;;;5012801;28;20168;-75
2021/12/20 00:43:04;;;;;;;10.32;2.67;;;3.20;99.90;;;;;;5002433;28;20018;-75
2021/12/20 00:45:32;;;;;;;11.93;3.10;;;3.20;99.90;;;;;;5027923;28;20025;-75
2021/12/20 00:47:58;;;;;;;7.65;2.80;;;3.20;99.90;;;;;;5029307;28;20109;-75
2021/12/20 00:50:26;;;;;;;10.10;2.67;;;3.20;99.90;;;;;;5030351;28;20033;-75
2021/12/20 00:52:52;;;;;;;10.80;3.00;;;3.20;99.90;;;;;;5027313;28;20033;-75
2021/12/20 00:55:19;;;;;;;7.35;2.70;;;3.20;99.90;;;;;;5027243;28;20030;-75
2021/12/20 00:57:50;;;;;;;15.38;4.72;;;3.20;99.90;;;;;;5011410;28;20040;-75
2021/12/20 01:00:20;;;;;;;11.93;3.20;;;3.10;99.90;;;;;;5027497;28;20026;-75
2021/12/20 01:02:46;;;;;;;9.02;2.55;;;3.20;99.90;;;;;;5027095;28;20053;-76
2021/12/20 01:05:13;;;;;;;13.85;3.80;;;3.10;99.90;;;;;;5007878;28;20026;-75
2021/12/20 01:07:38;;;;;;;12.85;3.42;;;3.10;99.90;;;;;;5023717;28;20616;-75
2021/12/20 01:10:07;;;;;;;9.38;3.33;;;3.10;99.90;;;;;;4998839;28;20029;-75
2021/12/20 01:12:42;;;;;;;13.60;3.30;;;3.10;99.90;;;;;;5026885;28;20029;-75
2021/12/20 01:15:10;;;;;;;9.63;3.47;;;3.10;99.90;;;;;;5009595;28;20033;-75
2021/12/20 01:17:36;;;;;;;14.50;3.47;;;3.10;99.90;;;;;;5024626;28;20037;-75
2021/12/20 01:20:03;;;;;;;12.07;3.75;;;3.10;99.90;;;;;;4988567;28;20018;-75
2021/12/20 01:22:29;;;;;;;14.30;3.55;;;3.00;99.90;;;;;;5025984;28;20514;-75
2021/12/20 01:24:54;;;;;;;16.63;3.17;;;3.00;99.90;;;;;;5011066;28;20285;-76
2021/12/20 01:27:20;;;;;;;10.82;3.00;;;2.90;99.90;;;;;;4996154;28;20032;-75
2021/12/20 01:29:48;;;;;;;14.48;3.70;;;2.90;99.90;;;;;;5030946;28;20022;-75
2021/12/20 01:32:14;;;;;;;10.50;2.72;;;2.90;99.90;;;;;;5014607;28;20108;-74
2021/12/20 01:34:40;;;;;;;13.55;3.15;;;3.00;99.90;;;;;;5033246;28;20061;-75
2021/12/20 01:37:05;;;;;;;17.90;3.72;;;3.00;99.90;;;;;;5030346;28;20025;-76
2021/12/20 01:39:31;;;;;;;11.40;3.40;;;2.90;99.90;;;;;;5027430;28;20427;-76
2021/12/20 01:41:59;;;;;;;6.95;2.35;;;2.90;99.90;;;;;;5031071;28;20041;-76
2021/12/20 01:44:24;;;;;;;11.25;3.08;;;2.90;99.90;;;;;;5027420;28;20395;-76
2021/12/20 01:46:51;;;;;;;16.83;3.60;;;2.90;99.90;;;;;;5029394;28;20022;-74
2021/12/20 01:49:17;;;;;;;19.00;3.30;;;2.80;99.90;;;;;;5028341;28;20033;-74
2021/12/20 01:54:14;;;;;;;10.90;2.88;;;2.80;99.90;;;;;;5026448;28;20064;-76
2021/12/20 01:56:42;;;;;;;13.13;2.85;;;2.80;99.90;;;;;;5031866;28;20025;-73
2021/12/20 01:59:09;;;;;;;17.05;3.55;;;2.80;99.90;;;;;;5010236;28;20025;-75
2021/12/20 02:01:35;;;;;;;13.18;3.38;;;2.80;99.90;;;;;;5030012;28;20025;-75
2021/12/20 02:04:04;;;;;;;13.13;3.88;;;2.80;99.90;;;;;;5033275;28;20100;-76
2021/12/20 02:06:35;;;;;;;11.88;2.90;;;2.70;99.90;;;;;;5032796;28;20030;-75
2021/12/20 02:09:04;;;;;;;8.82;2.33;;;2.70;99.90;;;;;;5034033;28;20026;-75
2021/12/20 02:11:30;;;;;;;11.20;2.67;;;2.70;99.90;;;;;;5030073;28;20033;-75
2021/12/20 02:13:56;;;;;;;8.48;2.60;;;2.70;99.90;;;;;;5030954;28;20025;-74
2021/12/20 02:16:22;;;;;;;16.63;3.17;;;2.70;99.90;;;;;;5013529;28;20025;-75
2021/12/20 02:18:48;;;;;;;10.23;2.97;;;2.70;99.90;;;;;;5030132;28;20482;-75
2021/12/20 02:21:14;;;;;;;12.25;2.35;;;2.60;99.90;;;;;;5031018;28;20103;-75
2021/12/20 02:23:40;;;;;;;11.05;2.60;;;2.70;99.90;;;;;;5030753;28;20495;-77
2021/12/20 02:26:06;;;;;;;10.48;2.70;;;2.70;99.90;;;;;;5016328;28;20026;-74
2021/12/20 02:28:38;;;;;;;9.65;2.70;;;2.60;99.90;;;;;;5031431;28;20080;-75
2021/12/20 02:38:58;;;;;;;8.82;2.97;;;2.60;99.90;;;;;;5030786;28;20041;-75
2021/12/20 02:41:29;;;;;;;8.45;1.88;;;2.50;99.90;;;;;;5028733;28;20017;-73
2021/12/20 02:43:57;;;;;;;;;;;2.60;99.90;;;;;;5031155;28;20033;-75
2021/12/20 02:48:59;;;;;;;9.27;2.05;;;2.60;99.90;;;;;;5029446;28;20053;-75
2021/12/20 02:51:26;;;;;;;9.30;1.85;;;2.60;99.90;;;;;;5014805;28;20108;-75
2021/12/20 02:53:53;;;;;;;9.48;2.58;;;2.60;99.90;;;;;;5031432;28;20033;-76
2021/12/20 02:56:19;;;;;;;10.05;2.33;;;2.60;99.90;;;;;;5012442;28;20418;-76
2021/12/20 02:58:45;;;;;;;10.95;2.10;;;2.50;99.90;;;;;;5027717;28;20084;-75
2021/12/20 03:01:11;;;;;;;10.85;3.22;;;2.50;99.90;;;;;;5029998;28;20471;-75
2021/12/20 03:03:37;;;;;;;11.13;2.45;;;2.50;99.90;;;;;;5029801;28;20033;-75
2021/12/20 03:06:20;;;;;;;7.68;2.20;;;2.60;99.90;;;;;;5031141;28;20030;-75
2021/12/20 03:08:49;;;;;;;7.50;1.95;;;2.50;99.90;;;;;;5013214;28;20025;-75
2021/12/20 03:11:16;;;;;;;8.93;1.60;;;2.60;99.90;;;;;;5032312;28;20249;-75
2021/12/20 03:13:45;;;;;;;4.68;2.63;;;2.50;99.90;;;;;;5032717;28;20052;-75
2021/12/20 03:16:10;;;;;;;9.18;1.95;;;2.60;99.90;;;;;;5030657;28;20525;-74
2021/12/20 03:18:36;;;;;;;4.75;1.60;;;2.50;99.90;;;;;;5009372;28;20026;-75
2021/12/20 03:21:02;;;;;;;8.35;1.75;;;2.50;99.90;;;;;;5022221;28;20591;-75
2021/12/20 03:23:27;;;;;;;6.05;2.17;;;2.50;99.90;;;;;;5030498;28;20092;-75
2021/12/20 03:25:53;;;;;;;9.10;1.95;;;2.50;99.90;;;;;;5029786;28;20159;-75
2021/12/20 03:28:19;;;;;;;8.15;1.98;;;2.50;99.90;;;;;;5013753;28;20034;-75
2021/12/20 03:30:44;;;;;;;7.63;1.92;;;2.40;99.90;;;;;;5031664;28;20422;-75
2021/12/20 03:33:11;;;;;;;11.13;2.17;;;2.40;99.90;;;;;;5030911;28;20029;-74
2021/12/20 03:35:37;;;;;;;7.53;1.95;;;2.40;99.90;;;;;;5010462;28;20981;-75
2021/12/20 03:38:03;;;;;;;7.82;1.83;;;2.50;99.90;;;;;;5011118;28;20021;-75
2021/12/20 03:40:29;;;;;;;8.95;2.10;;;2.40;99.90;;;;;;5033191;28;20549;-75
2021/12/20 03:42:55;;;;;;;7.78;2.13;;;2.40;99.90;;;;;;5023799;28;20372;-75
2021/12/20 03:45:21;;;;;;;9.32;2.08;;;2.40;99.90;;;;;;5032337;28;20027;-74
2021/12/20 03:47:47;;;;;;;12.50;2.95;;;2.30;99.90;;;;;;5031176;28;20479;-75
2021/12/20 03:50:14;;;;;;;6.47;1.80;;;2.30;99.90;;;;;;5012644;28;20044;-75
2021/12/20 03:52:40;;;;;;;7.88;2.03;;;2.30;99.90;;;;;;5010766;28;20026;-75
2021/12/20 03:55:07;;;;;;;6.82;1.90;;;2.30;99.90;;;;;;5029689;28;20041;-74
2021/12/20 03:57:33;;;;;;;7.95;2.22;;;2.30;99.90;;;;;;5012147;28;20048;-75
2021/12/20 03:59:59;;;;;;;8.00;1.90;;;2.30;99.90;;;;;;5029060;28;20021;-75
2021/12/20 04:02:28;;;;;;;10.60;2.08;;;2.30;99.90;;;;;;5033862;28;20376;-75
2021/12/20 04:04:54;;;;;;;8.13;2.63;;;2.30;99.90;;;;;;5015404;28;20024;-74
2021/12/20 04:07:19;;;;;;;9.73;2.10;;;2.30;99.90;;;;;;5032304;28;20017;-76
2021/12/20 04:09:45;;;;;;;12.20;1.73;;;2.30;99.90;;;;;;5014850;28;20029;-74
2021/12/20 04:12:11;;;;;;;11.73;1.88;;;2.30;99.90;;;;;;5011501;28;20040;-75
2021/12/20 04:14:36;;;;;;;8.32;1.52;;;2.20;99.90;;;;;;5013257;28;20025;-76
2021/12/20 04:17:02;;;;;;;6.75;1.70;;;2.20;99.90;;;;;;5029278;28;20606;-75
2021/12/20 04:19:28;;;;;;;9.88;2.70;;;2.20;99.90;;;;;;5026636;28;20025;-75
2021/12/20 04:21:54;;;;;;;7.57;2.55;;;2.20;99.90;;;;;;5030690;28;20037;-75
2021/12/20 04:24:19;;;;;;;5.68;2.28;;;2.20;99.90;;;;;;5027058;28;20029;-75
2021/12/20 04:26:45;;;;;;;7.43;1.58;;;2.20;99.90;;;;;;5030259;28;20041;-74
2021/12/20 04:29:11;;;;;;;9.05;2.42;;;2.20;99.90;;;;;;5027108;28;20485;-75
2021/12/20 04:31:37;;;;;;;9.77;1.70;;;2.20;99.90;;;;;;5025957;28;20025;-75
2021/12/20 04:34:03;;;;;;;9.80;1.60;;;2.20;99.90;;;;;;5026644;28;20163;-74
2021/12/20 04:36:30;;;;;;;9.60;1.75;;;2.20;99.90;;;;;;5027546;28;20025;-74
2021/12/20 04:38:56;;;;;;;10.60;2.17;;;2.20;99.90;;;;;;5009504;28;20454;-75
2021/12/20 04:41:21;;;;;;;8.38;2.15;;;2.10;99.90;;;;;;5029429;28;20483;-75
2021/12/20 04:43:47;;;;;;;8.77;2.00;;;2.20;99.90;;;;;;5009646;28;20107;-75
2021/12/20 04:46:13;;;;;;;6.93;2.10;;;2.20;99.90;;;;;;5008311;28;20018;-75
2021/12/20 04:48:38;;;;;;;7.35;1.80;;;2.20;99.90;;;;;;5006890;28;20119;-75
2021/12/20 04:51:04;;;;;;;4.07;1.67;;;2.10;99.90;;;;;;5011006;28;20041;-75
2021/12/20 04:53:30;;;;;;;7.05;2.10;;;2.10;99.90;;;;;;5023958;28;20025;-75
2021/12/20 04:55:55;;;;;;;8.13;1.70;;;2.10;99.90;;;;;;5024609;28;20060;-75
2021/12/20 04:58:21;;;;;;;9.57;2.05;;;2.10;99.90;;;;;;5026063;28;20052;-75
2021/12/20 05:00:47;;;;;;;7.22;1.50;;;2.20;99.90;;;;;;5027620;28;20056;-75
2021/12/20 05:03:12;;;;;;;8.57;2.00;;;2.20;99.90;;;;;;5030384;28;20033;-75
2021/12/20 05:05:38;;;;;;;9.05;2.72;;;2.20;99.90;;;;;;5031417;28;20547;-75
2021/12/20 05:08:05;;;;;;;6.80;1.58;;;2.10;99.90;;;;;;5031184;28;20116;-74
2021/12/20 05:10:34;;;;;;;7.78;1.88;;;2.10;99.90;;;;;;5030915;28;20484;-74
2021/12/20 05:13:10;;;;;;;7.25;1.85;;;2.10;99.90;;;;;;5030209;28;20033;-74
2021/12/20 05:15:37;;;;;;;8.48;1.83;;;2.10;99.90;;;;;;5031127;28;20091;-74
2021/12/20 05:18:05;;;;;;;7.85;1.60;;;2.10;99.90;;;;;;5024043;28;20026;-75
2021/12/20 05:20:32;;;;;;;8.30;1.75;;;2.10;99.90;;;;;;5014398;28;20030;-74
2021/12/20 05:22:58;;;;;;;6.55;2.35;;;2.10;99.90;;;;;;5010902;28;20105;-74
2021/12/20 05:25:25;;;;;;;9.45;2.20;;;2.10;99.90;;;;;;5031135;28;20447;-75
2021/12/20 05:27:51;;;;;;;6.22;1.95;;;2.10;99.90;;;;;;5031567;28;20021;-74
2021/12/20 05:30:18;;;;;;;6.13;1.70;;;2.00;99.90;;;;;;5038689;28;20037;-75
2021/12/20 05:32:44;;;;;;;11.25;2.08;;;2.00;99.90;;;;;;5030273;28;20056;-74
2021/12/20 05:35:12;;;;;;;6.93;1.70;;;2.00;99.90;;;;;;5011865;28;20116;-75
2021/12/20 05:37:38;;;;;;;5.88;1.95;;;2.00;99.90;;;;;;5026071;28;20026;-76
2021/12/20 05:40:07;;;;;;;5.53;1.77;;;2.10;99.90;;;;;;5010105;28;20028;-74
2021/12/20 05:42:32;;;;;;;7.85;1.92;;;2.00;99.90;;;;;;5012645;28;20030;-75
2021/12/20 05:44:58;;;;;;;5.05;1.80;;;2.00;99.90;;;;;;5011115;28;20037;-74
2021/12/20 05:47:24;;;;;;;8.75;2.03;;;2.00;99.90;;;;;;5010119;28;20927;-75
2021/12/20 05:49:50;;;;;;;5.82;2.03;;;2.00;99.90;;;;;;5028278;28;20454;-75
2021/12/20 05:52:16;;;;;;;9.75;2.00;;;1.90;99.90;;;;;;5032078;28;20490;-75
2021/12/20 05:54:42;;;;;;;6.78;1.50;;;1.90;99.90;;;;;;5023141;28;20057;-75
2021/12/20 05:57:08;;;;;;;9.90;2.03;;;2.00;99.90;;;;;;5029503;28;20457;-76
2021/12/20 05:59:34;;;;;;;4.88;1.90;;;2.00;99.90;;;;;;5026081;28;20029;-75
2021/12/20 06:02:00;;;;;;;6.15;1.63;;;2.00;99.90;;;;;;5028473;28;20029;-75
2021/12/20 06:04:26;;;;;;;11.88;1.73;;;2.00;99.90;;;;;;5007426;28;20053;-75
2021/12/20 06:06:52;;;;;;;9.30;2.08;;;1.90;99.90;;;;;;4997421;28;20073;-74
2021/12/20 06:09:17;;;;;;;6.95;1.83;;;2.00;99.90;;;;;;5019456;28;20060;-74
2021/12/20 06:11:43;;;;;;;17.20;2.75;;;2.00;99.90;;;;;;5023306;28;20026;-76
2021/12/20 06:14:09;;;;;;;4.88;1.65;;;2.00;99.90;;;;;;5019046;28;20057;-75
2021/12/20 06:16:35;;;;;;;8.55;1.88;;;2.00;99.90;;;;;;5020044;28;20029;-74
2021/12/20 06:19:02;;;;;;;7.38;2.40;;;2.00;99.90;;;;;;5029324;28;20484;-75
2021/12/20 06:21:27;;;;;;;7.63;1.75;;;2.00;99.90;;;;;;5029314;28;20403;-75
2021/12/20 06:23:53;;;;;;;6.70;1.70;;;2.00;99.90;;;;;;5032908;28;20022;-75
2021/12/20 06:26:23;;;;;;;6.50;1.45;;;2.00;99.90;;;;;;5026479;28;20167;-75
2021/12/20 06:28:50;;;;;;;8.63;1.92;;;2.00;99.90;;;;;;5023175;28;20018;-76
2021/12/20 06:31:16;;;;;;;7.55;1.80;;;2.00;99.90;;;;;;5028794;28;20035;-75
2021/12/20 06:33:42;;;;;;;7.60;1.63;;;2.00;99.90;;;;;;5029527;28;20491;-76
2021/12/20 06:36:07;;;;;;;11.15;3.00;;;1.90;99.90;;;;;;5023221;28;20038;-74
2021/12/20 06:38:34;;;;;;;4.45;1.65;;;2.00;99.90;;;;;;5023477;28;20108;-77
2021/12/20 06:41:00;;;;;;;10.05;2.03;;;1.90;99.90;;;;;;5027234;28;20034;-75
2021/12/20 06:43:26;;;;;;;8.80;1.90;;;1.90;99.90;;;;;;5032264;28;20025;-77
2021/12/20 06:45:52;;;;;;;8.18;1.80;;;2.00;99.90;;;;;;5032847;28;20026;-75
2021/12/20 06:48:18;;;;;;;5.25;2.00;;;2.00;99.90;;;;;;5033175;28;20453;-75
2021/12/20 06:50:43;;;;;;;9.57;2.00;;;2.00;99.90;;;;;;5010544;28;20021;-75
2021/12/20 06:53:09;;;;;;;5.38;1.75;;;1.80;99.90;;;;;;5029246;28;20056;-73
2021/12/20 06:55:36;;;;;;;7.82;1.65;;;1.80;99.90;;;;;;5025583;28;20030;-75
2021/12/20 06:58:02;;;;;;;11.15;1.92;;;1.80;99.90;;;;;;5034189;28;20511;-73
2021/12/20 07:00:28;;;;;;;6.80;1.60;;;1.80;99.90;;;;;;5029318;28;20108;-74
2021/12/20 07:02:54;;;;;;;9.57;1.80;;;1.80;99.90;;;;;;5031705;28;20053;-76
2021/12/20 07:05:20;;;;;;;10.52;2.25;;;1.80;99.90;;;;;;5032677;28;20029;-74
2021/12/20 07:07:46;;;;;;;10.70;2.15;;;1.80;99.90;;;;;;5033576;28;20399;-73
2021/12/20 07:10:12;;;;;;;8.00;1.70;;;1.80;99.90;;;;;;5012234;28;20018;-73
2021/12/20 07:12:38;;;;;;;6.25;2.35;;;1.80;99.90;;;;;;5030050;28;20426;-73
2021/12/20 07:15:05;;;;;;;6.18;2.03;;;1.80;99.90;;;;;;5028898;28;20025;-75
2021/12/20 07:17:31;;;;;;;12.10;2.08;;;1.80;99.90;;;;;;5031978;28;20034;-75
2021/12/20 07:20:00;;;;;;;9.98;1.75;;;1.80;99.90;;;;;;5033109;28;21050;-75
2021/12/20 07:22:25;;;;;;;4.25;1.60;;;1.80;99.90;;;;;;5023671;28;20100;-76
2021/12/20 07:24:51;;;;;;;7.95;1.70;;;1.70;99.90;;;;;;5029180;28;20606;-76
2021/12/20 07:27:20;;;;;;;9.82;2.00;;;1.80;99.90;;;;;;5026733;28;20052;-75
2021/12/20 07:29:46;;;;;;;11.50;2.47;;;1.80;99.90;;;;;;5027553;28;20090;-76
2021/12/20 07:32:12;;;;;;;7.90;2.58;;;1.70;99.90;;;;;;5029603;28;20411;-74
2021/12/20 07:34:39;;;;;;;10.68;1.60;;;1.70;99.90;;;;;;5027978;28;20025;-75
2021/12/20 07:37:06;;;;;;;10.82;2.03;;;1.80;99.90;;;;;;5028875;28;20041;-74
2021/12/20 07:39:32;;;;;;;6.35;2.80;;;1.80;99.90;;;;;;5031070;28;20095;-75
2021/12/20 07:41:59;;;;;;;9.57;2.10;;;1.80;99.90;;;;;;5030985;28;20044;-73
2021/12/20 07:44:26;;;;;;;10.57;2.30;;;1.70;99.90;;;;;;5028617;28;20030;-74
2021/12/20 07:46:52;;;;;;;8.43;2.33;;;1.70;99.90;;;;;;5030504;28;20037;-74
2021/12/20 07:49:18;;;;;;;6.32;1.83;;;1.70;99.90;;;;;;5010082;28;20040;-76
2021/12/20 07:51:45;;;;;;;6.20;2.35;;;1.70;99.90;;;;;;5032289;28;20032;-74
2021/12/20 07:54:12;;;;;;;11.82;2.10;;;1.80;99.90;;;;;;5030464;28;20110;-74
2021/12/20 07:56:38;;;;;;;9.75;2.25;;;1.90;99.90;;;;;;4994911;28;20030;-75
2021/12/20 07:59:04;;;;;;;15.63;2.53;;;1.90;99.90;;;;;;5030586;28;20033;-75
2021/12/20 08:01:34;;;;;;;9.38;1.77;;;1.90;99.90;;;;;;5028241;28;20048;-74
2021/12/20 08:04:00;;;;;;;6.97;1.70;;;1.90;99.90;;;;;;5030387;28;20029;-74
2021/12/20 08:06:26;;;;;;;6.30;1.60;;;1.80;99.90;;;;;;5032237;28;20483;-74
2021/12/20 08:08:52;;;;;;;4.75;1.73;;;1.80;99.90;;;;;;5028043;28;20112;-73
2021/12/20 08:11:18;;;;;;;12.40;2.50;;;1.90;99.90;;;;;;5025269;28;20033;-74
2021/12/20 08:13:46;;;;;;;10.93;2.33;;;1.90;99.90;;;;;;5007644;28;20087;-74
2021/12/20 08:16:13;;;;;;;8.52;2.00;;;1.90;99.90;;;;;;5029592;28;20029;-74
2021/12/20 08:18:43;;;;;;;6.35;1.67;;;2.00;99.90;;;;;;5011701;28;20071;-74
2021/12/20 08:21:10;;;;;;;5.43;2.13;;;2.10;99.90;;;;;;5028450;28;20033;-74
2021/12/20 08:23:37;;;;;;;5.97;2.00;;;2.10;99.90;;;;;;5030207;28;20286;-74
2021/12/20 08:26:03;;;;;;;7.40;1.85;;;2.10;99.90;;;;;;5031514;28;20022;-75
2021/12/20 08:28:29;;;;;;;5.47;1.95;;;2.00;99.90;;;;;;5029845;28;20367;-74
2021/12/20 08:30:55;;;;;;;6.90;2.17;;;2.00;99.90;;;;;;5029608;28;20052;-75
2021/12/20 08:33:20;;;;;;;5.07;2.58;;;1.90;99.90;;;;;;5029481;28;20029;-76
2021/12/20 08:35:50;;;;;;;8.77;1.80;;;1.90;99.90;;;;;;5029381;28;20036;-75
2021/12/20 08:38:19;;;;;;;7.63;1.85;;;1.90;99.90;;;;;;5029106;28;20672;-75
2021/12/20 08:40:47;;;;;;;7.25;1.73;;;1.90;99.90;;;;;;5029585;28;20025;-75
2021/12/20 08:43:14;;;;;;;8.85;2.20;;;1.90;99.90;;;;;;5033906;28;20578;-75
2021/12/20 08:45:41;;;;;;;6.50;1.98;;;1.90;99.90;;;;;;5026632;28;20080;-75
2021/12/20 08:48:06;;;;;;;7.88;2.13;;;1.80;99.90;;;;;;5029714;28;20036;-74
2021/12/20 08:50:33;;;;;;;4.80;1.67;;;1.80;99.90;;;;;;5029812;28;20030;-75
2021/12/20 08:52:59;;;;;;;7.07;1.85;;;1.80;99.90;;;;;;5028492;28;20109;-75
2021/12/20 08:55:25;;;;;;;6.18;1.80;;;1.90;99.90;;;;;;5028213;28;20100;-74
2021/12/20 08:57:51;;;;;;;5.65;1.90;;;1.90;99.90;;;;;;5030652;28;20033;-76
2021/12/20 09:00:21;;;;;;;7.10;2.05;;;2.00;99.90;;;;;;5011450;28;20580;-75
2021/12/20 09:02:47;;;;;;;11.07;2.88;;;2.00;99.90;;;;;;5028476;28;20031;-73
2021/12/20 09:05:13;;;;;;;10.65;3.10;;;2.00;99.90;;;;;;5011447;28;20041;-75
2021/12/20 09:07:42;;;;;;;8.32;2.33;;;2.10;99.90;;;;;;5030473;28;20396;-75
2021/12/20 09:10:10;;;;;;;6.13;1.95;;;2.10;99.90;;;;;;5012387;28;20047;-75
2021/12/20 09:12:36;;;;;;;9.45;2.25;;;2.10;99.90;;;;;;5012416;28;20064;-76
2021/12/20 09:15:04;;;;;;;9.02;2.55;;;2.10;99.90;;;;;;5029302;28;20045;-76
2021/12/20 09:17:30;;;;;;;4.82;1.90;;;2.20;99.90;;;;;;5029430;28;20029;-75
2021/12/20 09:19:56;;;;;;;8.07;2.30;;;2.20;99.90;;;;;;5027934;28;20410;-76
2021/12/20 09:22:27;;;;;;;9.05;2.00;;;2.20;99.90;;;;;;5012081;28;20018;-76
2021/12/20 09:24:53;;;;;;;7.90;1.85;;;2.20;99.90;;;;;;5010544;28;20079;-75
2021/12/20 09:27:18;;;;;;;4.68;1.90;;;2.30;99.90;;;;;;5026694;28;20049;-74
2021/12/20 09:29:44;;;;;;;4.55;1.70;;;2.30;99.90;;;;;;5014025;28;20068;-75
2021/12/20 09:32:10;;;;;;;5.38;1.70;;;2.30;99.90;;;;;;4990435;28;20064;-75
2021/12/20 09:34:36;;;;;;;8.88;1.95;;;2.40;99.90;;;;;;5008984;28;20033;-75
2021/12/20 09:37:06;;;;;;;7.05;1.90;;;2.30;99.90;;;;;;5028642;28;20083;-75
2021/12/20 09:39:34;;;;;;;7.57;2.00;;;2.40;99.90;;;;;;5013584;28;20032;-74
2021/12/20 09:42:00;;;;;;;8.65;2.28;;;2.30;99.90;;;;;;5028870;28;20025;-75
2021/12/20 09:44:27;;;;;;;6.80;1.90;;;2.40;99.90;;;;;;5026871;28;20056;-74
2021/12/20 09:46:58;;;;;;;9.00;2.30;;;2.40;99.90;;;;;;5027247;28;20487;-75
2021/12/20 09:49:24;;;;;;;6.43;1.65;;;2.40;99.90;;;;;;5027294;28;20113;-75
2021/12/20 09:51:55;;;;;;;11.73;2.92;;;2.40;99.90;;;;;;5030123;28;20487;-75
2021/12/20 09:54:20;;;;;;;9.02;2.72;;;2.40;99.90;;;;;;5027853;28;21788;-75
2021/12/20 09:56:48;;;;;;;6.18;2.30;;;2.50;99.90;;;;;;5011440;28;20045;-74
2021/12/20 09:59:18;;;;;;;10.23;1.83;;;2.50;99.90;;;;;;5012843;28;20060;-75
2021/12/20 10:01:45;;;;;;;4.43;1.70;;;2.50;99.90;;;;;;5029364;28;20106;-75
2021/12/20 10:04:11;;;;;;;9.27;2.10;;;2.60;99.90;;;;;;5009438;28;20021;-75
2021/12/20 10:06:38;;;;;;;3.97;1.75;;;2.60;99.90;;;;;;5011195;28;20034;-75
2021/12/20 10:09:12;;;;;;;3.88;1.67;;;2.50;99.90;;;;;;5011409;28;20026;-75
2021/12/20 10:11:38;;;;;;;4.88;1.50;;;2.60;99.90;;;;;;5011759;28;20026;-75
2021/12/20 10:14:24;;;;;;;10.75;2.10;;;2.60;99.90;;;;;;5010407;28;20116;-75
2021/12/20 10:17:02;;;;;;;4.60;1.50;;;2.70;99.90;;;;;;5013442;28;20037;-74
2021/12/20 10:19:34;;;;;;;6.07;1.30;;;2.70;99.90;;;;;;5030812;28;20040;-76
2021/12/20 10:22:02;;;;;;;4.65;1.70;;;2.70;99.90;;;;;;5032496;28;20032;-74
2021/12/20 10:24:38;;;;;;;3.75;1.40;;;2.80;99.90;;;;;;5032064;28;20122;-75
2021/12/20 10:27:04;;;;;;;7.55;2.33;;;2.80;99.90;;;;;;5030069;28;20021;-74
2021/12/20 10:29:35;;;;;;;6.55;2.08;;;2.80;99.90;;;;;;5027320;28;20029;-72
2021/12/20 10:32:01;;;;;;;12.10;2.30;;;2.80;99.90;;;;;;5031120;28;20038;-73
2021/12/20 10:34:32;;;;;;;6.28;1.80;;;2.70;99.90;;;;;;5032187;28;20033;-73
2021/12/20 10:36:59;;;;;;;6.32;1.98;;;2.70;99.90;;;;;;5014504;28;20773;-73
2021/12/20 10:39:41;;;;;;;8.55;2.00;;;2.80;99.90;;;;;;5032376;28;20040;-73
2021/12/20 10:42:26;;;;;;;6.90;2.13;;;2.90;99.90;;;;;;5031829;28;20037;-73
2021/12/20 10:45:15;;;;;;;4.50;1.60;;;2.90;99.90;;;;;;5014927;28;20045;-73
2021/12/20 10:47:42;;;;;;;7.35;1.77;;;2.90;99.90;;;;;;5033583;28;20028;-72
2021/12/20 10:50:23;;;;;;;5.47;1.80;;;2.90;99.90;;;;;;5033135;28;20021;-73
2021/12/20 10:52:49;;;;;;;6.77;1.87;;;2.90;99.90;;;;;;5030489;28;20025;-73
2021/12/20 10:55:35;;;;;;;6.22;2.50;;;2.90;99.90;;;;;;5015146;28;20278;-73
2021/12/20 10:58:20;;;;;;;7.63;1.85;;;3.00;99.90;;;;;;5033911;28;20095;-74
2021/12/20 11:01:07;;;;;;;6.70;2.10;;;2.90;99.90;;;;;;5030328;28;20030;-74
2021/12/20 11:03:38;;;;;;;8.95;2.38;;;3.00;99.90;;;;;;5028506;28;20467;-74
2021/12/20 11:11:22;;;;;;;6.93;1.92;;;3.10;99.90;;;;;;5028887;28;20022;-75
2021/12/20 11:13:48;;;;;;;7.13;1.60;;;3.00;99.90;;;;;;5035966;28;20048;-74
2021/12/20 11:16:31;;;;;;;6.22;1.90;;;3.00;99.90;;;;;;5033660;28;20503;-73
2021/12/20 11:19:09;;;;;;;4.65;1.58;;;3.00;99.90;;;;;;5030116;28;20494;-73
2021/12/20 11:21:36;;;;;;;4.65;1.60;;;3.00;99.90;;;;;;5032325;28;20025;-72
2021/12/20 11:24:03;;;;;;;5.30;1.58;;;3.10;99.90;;;;;;5009833;28;20546;-72
2021/12/20 11:26:29;;;;;;;6.80;2.45;;;3.10;99.90;;;;;;5031043;28;20101;-73
2021/12/20 11:28:56;;;;;;;8.10;1.70;;;3.10;99.90;;;;;;5031719;28;20101;-73
2021/12/20 11:31:23;;;;;;;6.55;2.05;;;3.10;99.90;;;;;;5031761;28;20029;-73
2021/12/20 11:33:49;;;;;;;6.68;1.80;;;3.10;99.90;;;;;;5024699;28;20033;-73
2021/12/20 11:36:15;;;;;;;5.00;1.90;;;3.10;99.90;;;;;;5029032;28;20036;-73
2021/12/20 11:38:41;;;;;;;4.75;1.52;;;3.20;99.90;;;;;;5025814;28;20056;-73
2021/12/20 11:41:07;;;;;;;10.18;2.05;;;3.20;99.90;;;;;;5030805;28;20017;-73
2021/12/20 11:43:33;;;;;;;5.00;1.60;;;3.20;99.90;;;;;;5031894;28;20060;-76
2021/12/20 11:46:01;;;;;;;5.55;1.40;;;3.20;99.90;;;;;;5031425;28;20084;-76
2021/12/20 11:48:28;;;;;;;6.70;2.00;;;3.20;99.90;;;;;;5029680;28;20029;-76
2021/12/20 11:50:56;;;;;;;6.43;1.50;;;3.20;99.90;;;;;;5032740;28;20030;-74
2021/12/20 11:53:22;;;;;;;4.32;1.80;;;3.20;99.90;;;;;;5013828;28;20052;-72
2021/12/20 11:55:53;;;;;;;6.55;1.52;;;3.20;99.90;;;;;;5009167;28;20029;-71
2021/12/20 11:58:31;;;;;;;4.65;1.63;;;3.30;99.90;;;;;;5031528;28;20039;-71
2021/12/20 12:00:59;;;;;;;10.63;1.85;;;3.30;99.90;;;;;;5030875;28;20053;-73
2021/12/20 12:03:36;;;;;;;9.18;2.53;;;3.30;99.90;;;;;;5030541;28;20107;-74
2021/12/20 12:06:06;;;;;;;4.90;1.85;;;3.30;99.90;;;;;;5031797;28;20025;-76
2021/12/20 12:08:55;;;;;;;9.15;1.75;;;3.30;99.90;;;;;;5028375;28;20038;-76
2021/12/20 12:11:23;;;;;;;5.53;1.80;;;3.30;99.90;;;;;;5028433;28;20368;-76
2021/12/20 12:14:01;;;;;;;4.15;1.98;;;3.40;99.90;;;;;;5028940;28;20037;-75
2021/12/20 12:16:59;;;;;;;5.65;1.90;;;3.40;99.90;;;;;;5029109;28;20109;-75
2021/12/20 12:19:42;;;;;;;5.13;1.95;;;3.40;99.90;;;;;;5032101;28;20036;-76
2021/12/20 12:22:42;;;;;;;6.32;1.65;;;3.40;99.90;;;;;;5020834;28;20033;-76
2021/12/20 12:25:34;;;;;;;5.43;1.88;;;3.50;99.90;;;;;;5026752;28;20037;-76
2021/12/20 12:28:00;;;;;;;7.90;2.10;;;3.50;99.90;;;;;;5015916;28;20021;-76
2021/12/20 12:30:28;;;;;;;9.30;2.13;;;3.50;99.90;;;;;;5031860;28;20033;-76
2021/12/20 12:32:55;;;;;;;7.63;1.90;;;3.50;99.90;;;;;;5032037;28;20416;-76
2021/12/20 12:35:39;;;;;;;7.72;2.15;;;3.50;99.90;;;;;;5030010;28;20052;-77
2021/12/20 12:38:25;;;;;;;4.78;1.63;;;3.50;99.90;;;;;;5036787;28;20112;-75
2021/12/20 12:41:11;;;;;;;8.18;1.85;;;3.50;99.90;;;;;;5012273;28;20056;-78
2021/12/20 12:43:58;;;;;;;8.98;1.85;;;3.50;99.90;;;;;;5013585;28;20021;-78
2021/12/20 12:46:36;;;;;;;6.38;1.83;;;3.60;99.90;;;;;;5010996;28;20021;-77
2021/12/20 12:49:25;;;;;;;7.63;2.67;;;3.50;99.90;;;;;;5021577;28;20038;-76
2021/12/20 12:51:51;;;;;;;10.38;2.20;;;3.60;99.90;;;;;;5027874;28;20601;-76
2021/12/20 12:54:32;;;;;;;7.07;1.95;;;3.60;99.90;;;;;;5004542;28;20033;-76
2021/12/20 12:57:24;;;;;;;7.50;2.05;;;3.60;99.90;;;;;;5029964;28;20034;-76
2021/12/20 12:59:50;;;;;;;6.43;1.60;;;3.60;99.90;;;;;;4999147;28;20491;-77
2021/12/20 13:02:28;;;;;;;5.63;1.85;;;3.60;99.90;;;;;;5030241;28;20032;-77
2021/12/20 13:05:03;;;;;;;9.07;2.13;;;3.60;99.90;;;;;;5006104;28;20033;-76
2021/12/20 13:07:41;;;;;;;5.90;1.90;;;3.60;99.90;;;;;;5025474;28;20475;-76
2021/12/20 13:10:10;;;;;;;8.02;1.95;;;3.60;99.90;;;;;;5024174;28;20588;-77
2021/12/20 13:12:46;;;;;;;6.82;1.85;;;3.70;99.90;;;;;;5027246;28;20029;-75
2021/12/20 13:15:51;;;;;;;4.78;1.90;;;3.70;99.90;;;;;;5027881;28;20036;-75
2021/12/20 13:18:26;;;;;;;4.40;1.83;;;3.70;99.90;;;;;;5023413;28;20039;-77
2021/12/20 13:23:32;;;;;;;2.75;1.60;;;3.70;99.90;;;;;;5030156;28;20120;-75
2021/12/20 13:26:00;;;;;;;9.40;2.05;;;3.70;99.90;;;;;;5029066;28;20026;-77